Time;durP1;ratioP1;P1;durP2;ratioP2;P2;SDS_P1;SDS_P2;PMS_P1;PMS_P2;Temp;Humidity;BMP_temperature;BMP_pressure;BME280_temperature;BME280_humidity;BME280_pressure;Samples;Min_cycle;Max_cycle;Signal;HPM_P1;HPM_P2
2022/07/30 00:01:47;;;;;;;3.80;3.50;;;;;;;25.48;36.19;94949.50;5022038;28;20210;-67
2022/07/30 00:04:13;;;;;;;3.17;2.97;;;;;;;25.42;36.07;94948.63;5023882;28;20233;-67
2022/07/30 00:06:38;;;;;;;5.78;3.22;;;;;;;25.42;35.71;94942.41;5027762;28;20234;-68
2022/07/30 00:09:04;;;;;;;6.35;3.20;;;;;;;25.40;36.47;94947.22;5030184;28;20285;-68
2022/07/30 00:11:29;;;;;;;3.80;3.40;;;;;;;25.32;36.29;94944.97;5030860;28;20225;-68
2022/07/30 00:13:55;;;;;;;4.20;2.97;;;;;;;25.34;36.05;94938.28;5028232;28;20218;-68
2022/07/30 00:16:21;;;;;;;4.40;3.20;;;;;;;25.25;36.34;94939.72;5026013;28;20225;-67
2022/07/30 00:18:46;;;;;;;3.45;3.15;;;;;;;25.25;36.41;94932.47;5057485;28;20222;-68
2022/07/30 00:21:12;;;;;;;3.72;3.42;;;;;;;25.25;36.48;94940.53;5025675;28;20226;-68
2022/07/30 00:23:37;;;;;;;4.72;3.60;;;;;;;25.17;36.12;94935.56;5027509;28;20325;-68
2022/07/30 00:26:03;;;;;;;3.63;3.30;;;;;;;25.18;36.32;94933.69;5029723;28;20210;-68
2022/07/30 00:28:28;;;;;;;3.53;3.22;;;;;;;25.16;36.38;94935.81;5028279;28;20201;-68
2022/07/30 00:30:54;;;;;;;3.50;3.20;;;;;;;25.16;36.52;94939.31;5026396;28;20244;-68
2022/07/30 00:33:19;;;;;;;5.40;3.38;;;;;;;25.13;36.27;94933.56;5027286;28;20214;-68
2022/07/30 00:35:45;;;;;;;4.15;2.97;;;;;;;25.16;36.31;94933.13;5027090;28;20239;-68
2022/07/30 00:38:10;;;;;;;4.53;2.80;;;;;;;25.11;37.07;94933.03;5057814;28;20221;-68
2022/07/30 00:40:36;;;;;;;3.75;3.30;;;;;;;25.09;36.50;94934.06;5026786;28;20205;-67
2022/07/30 00:43:01;;;;;;;3.15;2.92;;;;;;;25.07;36.58;94933.50;5060083;28;20226;-68
2022/07/30 00:45:27;;;;;;;4.10;3.13;;;;;;;25.04;36.86;94930.47;5029429;28;20214;-68
2022/07/30 00:47:52;;;;;;;4.25;3.10;;;;;;;25.05;36.59;94927.56;5032880;28;20226;-68
2022/07/30 00:50:18;;;;;;;4.05;3.20;;;;;;;25.01;36.87;94934.47;5044548;28;20204;-67
2022/07/30 00:52:44;;;;;;;3.35;3.15;;;;;;;24.98;36.88;94928.78;5042541;28;20216;-68
2022/07/30 00:55:12;;;;;;;3.60;3.30;;;;;;;24.95;37.01;94923.88;5042310;28;20226;-69
2022/07/30 00:57:38;;;;;;;3.55;3.20;;;;;;;24.98;37.00;94923.38;5043282;28;20229;-68
2022/07/30 01:00:07;;;;;;;3.72;3.42;;;;;;;25.02;37.21;94919.97;5048607;28;20232;-68
2022/07/30 01:02:33;;;;;;;3.58;3.28;;;;;;;24.81;37.44;94915.31;5046888;28;20229;-67
2022/07/30 01:04:58;;;;;;;3.50;3.17;;;;;;;24.83;37.77;94923.94;5045706;28;20206;-68
2022/07/30 01:07:24;;;;;;;3.92;3.58;;;;;;;24.91;37.10;94918.16;5043260;28;20229;-68
2022/07/30 01:09:49;;;;;;;3.85;3.35;;;;;;;24.80;37.69;94921.75;5058375;28;20226;-68
2022/07/30 01:12:19;;;;;;;4.00;3.05;;;;;;;24.76;37.90;94916.03;5041127;28;20229;-68
2022/07/30 01:14:45;;;;;;;4.20;3.88;;;;;;;24.80;37.92;94919.03;5044668;28;20234;-68
2022/07/30 01:17:10;;;;;;;3.22;2.95;;;;;;;24.83;37.56;94916.72;5047297;28;20259;-68
2022/07/30 01:19:48;;;;;;;3.88;3.47;;;;;;;24.78;38.01;94918.47;5062411;28;20205;-67
2022/07/30 01:22:28;;;;;;;3.85;3.30;;;;;;;24.72;37.89;94908.69;5044616;28;20222;-68
2022/07/30 01:25:02;;;;;;;3.70;3.40;;;;;;;24.67;38.29;94919.34;5055339;28;20225;-67
2022/07/30 01:27:53;;;;;;;4.47;3.53;;;;;;;24.73;38.28;94918.41;5061132;28;20218;-67
2022/07/30 01:30:24;;;;;;;3.30;2.92;;;;;;;24.69;38.16;94920.75;5043279;28;20611;-68
2022/07/30 01:32:52;;;;;;;4.78;3.90;;;;;;;24.62;38.33;94923.59;5031715;28;20303;-70
2022/07/30 01:35:20;;;;;;;3.75;3.45;;;;;;;24.59;38.54;94923.25;5065334;28;20209;-69
2022/07/30 01:37:47;;;;;;;3.58;3.13;;;;;;;24.54;38.38;94918.63;5044986;28;20296;-70
2022/07/30 01:40:13;;;;;;;3.97;3.55;;;;;;;24.51;38.55;94919.09;5044638;28;20217;-71
2022/07/30 01:42:40;;;;;;;4.68;3.80;;;;;;;24.54;38.78;94913.25;5044749;28;20222;-70
2022/07/30 01:45:07;;;;;;;4.95;3.67;;;;;;;24.58;38.56;94914.38;5043392;28;20213;-70
2022/07/30 01:47:34;;;;;;;4.03;3.70;;;;;;;24.51;38.50;94916.41;5044827;28;20233;-69
2022/07/30 01:50:01;;;;;;;4.00;3.60;;;;;;;24.50;39.06;94917.47;5043942;28;20746;-69
2022/07/30 01:52:29;;;;;;;3.97;3.67;;;;;;;24.42;39.03;94912.44;5061455;28;20234;-70
2022/07/30 01:54:57;;;;;;;4.47;3.70;;;;;;;24.42;38.70;94918.63;5046890;28;20253;-70
2022/07/30 01:57:24;;;;;;;4.63;3.35;;;;;;;24.34;39.22;94912.81;5043981;28;20225;-69
2022/07/30 01:59:57;;;;;;;5.18;3.97;;;;;;;24.27;39.46;94915.66;5043576;28;20222;-69
2022/07/30 02:02:23;;;;;;;3.85;3.55;;;;;;;24.29;38.84;94915.41;5046054;28;20221;-70
2022/07/30 02:04:49;;;;;;;3.47;3.17;;;;;;;24.27;39.08;94902.25;5058789;28;20220;-71
2022/07/30 02:07:23;;;;;;;4.60;3.80;;;;;;;24.31;38.98;94905.25;5057320;28;20236;-70
2022/07/30 02:09:58;;;;;;;3.80;3.50;;;;;;;24.30;38.99;94908.97;5060349;28;20228;-69
2022/07/30 02:12:28;;;;;;;4.55;3.63;;;;;;;24.10;39.36;94906.72;5052070;28;20232;-69
2022/07/30 02:15:01;;;;;;;4.85;3.90;;;;;;;24.10;39.34;94910.22;5059601;28;20233;-70
2022/07/30 02:17:52;;;;;;;3.83;3.38;;;;;;;24.20;39.49;94910.44;5038982;28;20233;-69
2022/07/30 02:20:18;;;;;;;5.07;3.70;;;;;;;24.14;39.34;94903.34;5041018;28;20209;-70
2022/07/30 02:22:46;;;;;;;4.00;3.70;;;;;;;24.14;39.35;94891.78;5046628;28;20201;-70
2022/07/30 02:25:16;;;;;;;4.25;3.22;;;;;;;24.18;39.16;94898.28;5044496;28;20217;-69
2022/07/30 02:27:43;;;;;;;4.18;3.70;;;;;;;24.04;39.72;94891.56;5044478;28;20311;-69
2022/07/30 02:30:10;;;;;;;3.83;3.53;;;;;;;24.06;39.57;94892.97;5046056;28;20261;-69
2022/07/30 02:32:39;;;;;;;4.53;3.53;;;;;;;24.09;39.58;94899.72;5042544;28;20225;-69
2022/07/30 02:35:12;;;;;;;4.35;3.83;;;;;;;24.17;39.66;94886.72;5057783;28;20217;-71
2022/07/30 02:37:40;;;;;;;5.63;3.70;;;;;;;24.15;40.15;94893.41;5043430;28;20282;-70
2022/07/30 02:40:06;;;;;;;3.28;3.08;;;;;;;24.18;39.64;94892.91;5042091;28;20290;-69
2022/07/30 02:42:32;;;;;;;3.80;3.53;;;;;;;24.16;39.59;94895.84;5042193;28;20217;-70
2022/07/30 02:45:00;;;;;;;3.70;3.17;;;;;;;24.12;39.41;94891.19;5062691;28;20214;-70
2022/07/30 02:47:27;;;;;;;6.45;3.72;;;;;;;24.05;39.66;94887.81;5041399;28;20222;-71
2022/07/30 02:49:54;;;;;;;5.65;3.67;;;;;;;24.09;39.69;94894.38;5043547;28;20212;-70
2022/07/30 02:52:21;;;;;;;3.72;3.42;;;;;;;24.08;39.86;94874.72;5060857;28;20240;-69
2022/07/30 02:54:50;;;;;;;5.35;3.70;;;;;;;23.98;40.01;94883.41;5056796;28;20290;-70
2022/07/30 02:57:18;;;;;;;7.55;3.78;;;;;;;24.07;39.79;94889.22;5042440;28;20236;-69
2022/07/30 02:59:46;;;;;;;4.35;3.75;;;;;;;24.09;39.82;94871.00;5042211;28;20241;-69
2022/07/30 03:02:13;;;;;;;4.00;3.70;;;;;;;24.05;39.88;94877.88;5061600;28;20206;-70
2022/07/30 03:04:39;;;;;;;3.97;3.53;;;;;;;24.12;40.05;94875.88;5064691;28;20209;-70
2022/07/30 03:07:06;;;;;;;4.32;3.72;;;;;;;24.06;40.00;94879.53;5060128;28;20321;-70
2022/07/30 03:09:33;;;;;;;3.85;3.45;;;;;;;23.93;40.56;94877.13;5041569;28;20222;-70
2022/07/30 03:12:00;;;;;;;3.85;3.50;;;;;;;23.94;40.58;94873.38;5038355;28;20221;-70
2022/07/30 03:14:26;;;;;;;3.70;3.40;;;;;;;23.84;40.64;94865.91;5041705;28;20675;-69
2022/07/30 03:16:55;;;;;;;3.90;3.60;;;;;;;23.81;40.93;94865.59;5058422;28;20201;-70
2022/07/30 03:19:29;;;;;;;4.57;3.67;;;;;;;23.72;41.71;94873.22;5025549;28;20639;-70
2022/07/30 03:21:56;;;;;;;8.10;4.20;;;;;;;23.62;41.84;94879.13;5026280;28;20276;-70
2022/07/30 03:24:23;;;;;;;4.95;3.85;;;;;;;23.62;42.21;94871.09;5020683;28;20325;-71
2022/07/30 03:26:51;;;;;;;4.78;4.20;;;;;;;23.36;42.40;94879.63;5021028;28;20230;-70
2022/07/30 03:29:19;;;;;;;4.30;4.00;;;;;;;23.45;42.19;94876.38;5024510;28;20264;-70
2022/07/30 03:31:45;;;;;;;4.30;3.92;;;;;;;23.42;42.32;94874.16;5042338;28;20201;-70
2022/07/30 03:34:11;;;;;;;4.18;3.78;;;;;;;23.55;42.11;94886.53;5024161;28;20222;-71
2022/07/30 03:36:38;;;;;;;5.13;3.80;;;;;;;23.56;42.12;94883.59;5060352;28;20293;-70
2022/07/30 03:39:06;;;;;;;7.80;3.72;;;;;;;23.61;42.11;94880.22;5036326;28;20222;-70
2022/07/30 03:41:33;;;;;;;4.43;4.00;;;;;;;23.71;41.79;94877.78;5027151;28;20219;-70
2022/07/30 03:43:59;;;;;;;4.15;3.85;;;;;;;23.74;41.95;94889.91;5014419;28;20222;-70
2022/07/30 03:46:26;;;;;;;4.15;3.85;;;;;;;23.85;41.69;94898.97;5027405;28;20712;-67
2022/07/30 03:48:53;;;;;;;7.50;3.80;;;;;;;23.63;42.31;94888.84;5027817;28;20291;-67
2022/07/30 03:51:19;;;;;;;4.22;3.80;;;;;;;23.65;42.49;94894.78;5040156;28;20222;-67
2022/07/30 03:53:45;;;;;;;4.05;3.63;;;;;;;23.69;42.50;94895.94;5030727;28;20225;-67
2022/07/30 03:56:13;;;;;;;4.60;4.13;;;;;;;23.62;42.60;94895.25;5028293;28;20263;-66
2022/07/30 03:58:38;;;;;;;3.97;3.58;;;;;;;23.64;42.68;94887.78;5026264;28;20222;-67
2022/07/30 04:01:04;;;;;;;4.75;3.72;;;;;;;23.61;42.82;94892.81;5025299;28;20340;-67
2022/07/30 04:03:31;;;;;;;5.80;4.03;;;;;;;23.58;42.89;94904.84;5059593;28;20226;-66
2022/07/30 04:05:57;;;;;;;4.72;3.85;;;;;;;23.56;42.61;94898.88;5031535;28;20302;-67
2022/07/30 04:08:22;;;;;;;4.30;3.67;;;;;;;23.64;42.48;94895.03;5037212;28;20221;-66
2022/07/30 04:10:49;;;;;;;6.93;4.32;;;;;;;23.48;42.77;94894.69;5027598;28;20213;-66
2022/07/30 04:13:14;;;;;;;4.63;4.28;;;;;;;23.65;42.42;94900.13;5030314;28;20221;-67
2022/07/30 04:15:54;;;;;;;5.90;4.47;;;;;;;23.76;42.45;94902.03;5060623;28;20237;-67
2022/07/30 04:18:23;;;;;;;6.13;4.00;;;;;;;23.75;42.29;94905.75;5058892;28;20237;-67
2022/07/30 04:20:50;;;;;;;4.60;4.18;;;;;;;23.75;42.85;94907.63;5022775;28;20255;-67
2022/07/30 04:23:17;;;;;;;4.00;3.47;;;;;;;23.77;42.55;94906.34;5054979;28;20210;-67
2022/07/30 04:25:42;;;;;;;4.53;4.00;;;;;;;23.86;43.06;94906.78;5025324;28;20205;-68
2022/07/30 04:28:10;;;;;;;3.85;3.55;;;;;;;23.90;42.84;94891.03;5025308;28;20229;-67
2022/07/30 04:30:36;;;;;;;5.90;4.18;;;;;;;23.92;42.88;94905.00;5028481;28;20230;-66
2022/07/30 04:33:03;;;;;;;4.55;4.15;;;;;;;23.90;43.11;94904.47;5026139;28;20276;-67
2022/07/30 04:35:33;;;;;;;5.95;4.40;;;;;;;23.89;42.77;94902.81;5025479;28;20238;-67
2022/07/30 04:38:01;;;;;;;4.45;4.05;;;;;;;24.01;42.33;94906.28;5026987;28;20207;-67
2022/07/30 04:40:27;;;;;;;5.70;3.97;;;;;;;23.89;42.58;94913.56;5028473;28;20237;-67
2022/07/30 04:42:52;;;;;;;4.70;4.30;;;;;;;23.87;42.86;94912.97;5042175;28;20228;-66
2022/07/30 04:45:19;;;;;;;4.25;3.90;;;;;;;23.87;42.67;94911.13;5049993;28;20225;-68
2022/07/30 04:47:45;;;;;;;4.30;3.90;;;;;;;24.05;42.73;94912.81;5047113;28;20226;-67
2022/07/30 04:50:12;;;;;;;4.45;4.03;;;;;;;24.16;42.32;94914.66;5044998;28;20750;-69
2022/07/30 04:52:38;;;;;;;6.07;4.70;;;;;;;24.07;43.16;94918.75;5046132;28;20475;-66
2022/07/30 04:55:06;;;;;;;6.80;4.85;;;;;;;24.02;44.03;94915.97;5046304;28;20221;-65
2022/07/30 04:57:34;;;;;;;6.25;4.55;;;;;;;23.94;44.35;94911.78;5043199;28;20263;-66
2022/07/30 05:00:00;;;;;;;5.90;4.93;;;;;;;24.07;44.43;94912.56;5042790;28;20308;-67
2022/07/30 05:02:29;;;;;;;5.22;4.70;;;;;;;23.91;45.34;94909.56;5048089;28;20293;-67
2022/07/30 05:04:56;;;;;;;6.00;5.13;;;;;;;23.98;45.24;94907.59;5049238;28;20300;-67
2022/07/30 05:07:22;;;;;;;6.35;5.00;;;;;;;24.14;45.12;94903.34;5028854;28;20276;-67
2022/07/30 05:09:49;;;;;;;8.13;5.38;;;;;;;24.26;44.85;94899.78;5020002;28;20273;-66
2022/07/30 05:12:14;;;;;;;5.70;5.10;;;;;;;24.41;44.64;94895.50;5042012;28;20226;-67
2022/07/30 05:14:40;;;;;;;11.55;5.25;;;;;;;24.35;44.69;94906.38;5020043;28;20222;-67
2022/07/30 05:17:06;;;;;;;6.22;5.63;;;;;;;24.46;43.94;94908.25;5023360;28;20212;-66
2022/07/30 05:19:31;;;;;;;5.65;5.15;;;;;;;24.42;44.42;94901.69;5022208;28;20203;-67
2022/07/30 05:21:57;;;;;;;6.43;4.90;;;;;;;24.43;44.35;94912.22;5026435;28;20218;-67
2022/07/30 05:24:22;;;;;;;6.45;5.82;;;;;;;24.29;45.23;94910.03;5024028;28;20217;-67
2022/07/30 05:26:48;;;;;;;7.30;5.45;;;;;;;24.50;44.64;94905.91;5027880;28;20217;-66
2022/07/30 05:29:13;;;;;;;6.82;5.70;;;;;;;24.53;44.64;94905.41;5041311;28;20237;-66
2022/07/30 05:31:39;;;;;;;6.00;5.50;;;;;;;24.38;45.45;94908.63;5025925;28;20210;-66
2022/07/30 05:34:05;;;;;;;5.75;5.15;;;;;;;24.40;45.29;94914.53;5026018;28;20237;-67
2022/07/30 05:36:30;;;;;;;7.13;5.47;;;;;;;24.46;45.27;94910.09;5037947;28;20248;-67
2022/07/30 05:38:57;;;;;;;8.45;5.05;;;;;;;24.58;44.64;94908.19;5046385;28;20282;-66
2022/07/30 05:41:22;;;;;;;5.63;4.60;;;;;;;24.76;44.14;94910.66;5046127;28;20297;-66
2022/07/30 05:43:48;;;;;;;6.55;5.00;;;;;;;24.80;44.32;94908.28;5046237;28;20317;-67
2022/07/30 05:46:13;;;;;;;4.82;4.28;;;;;;;24.77;44.27;94908.78;5045115;28;20222;-68
2022/07/30 05:48:39;;;;;;;4.50;4.20;;;;;;;24.85;43.29;94903.00;5042157;28;20238;-67
2022/07/30 05:51:04;;;;;;;4.78;4.25;;;;;;;24.95;42.83;94908.56;5043414;28;20307;-65
2022/07/30 05:53:30;;;;;;;6.78;4.75;;;;;;;25.05;42.46;94903.34;5043944;28;20236;-66
2022/07/30 05:55:56;;;;;;;4.97;4.15;;;;;;;24.97;42.79;94911.81;5048497;28;20221;-66
2022/07/30 05:58:22;;;;;;;6.00;4.85;;;;;;;25.12;42.79;94911.22;5048020;28;20236;-68
2022/07/30 06:00:48;;;;;;;4.45;4.05;;;;;;;25.21;42.15;94917.06;5045549;28;20233;-66
2022/07/30 06:03:13;;;;;;;5.20;4.60;;;;;;;25.23;41.91;94906.84;5032819;28;20294;-66
2022/07/30 06:05:39;;;;;;;5.32;4.28;;;;;;;25.20;41.93;94910.84;5022309;28;20222;-67
2022/07/30 06:08:04;;;;;;;5.68;4.57;;;;;;;25.16;42.85;94908.91;5021025;28;20213;-67
2022/07/30 06:10:30;;;;;;;5.25;4.85;;;;;;;25.16;43.09;94911.63;5039863;28;20206;-67
2022/07/30 06:12:56;;;;;;;9.80;5.85;;;;;;;25.19;43.70;94913.81;5031483;28;20214;-67
2022/07/30 06:15:22;;;;;;;7.32;6.15;;;;;;;25.19;44.72;94916.50;5027238;28;20233;-68
2022/07/30 06:17:47;;;;;;;7.70;6.47;;;;;;;25.39;42.87;94922.16;5024316;28;20225;-67
2022/07/30 06:20:14;;;;;;;6.38;5.70;;;;;;;25.41;43.04;94917.38;5024601;28;20194;-67
2022/07/30 06:22:40;;;;;;;7.25;5.68;;;;;;;25.27;43.46;94922.28;5024610;28;20274;-67
2022/07/30 06:25:07;;;;;;;7.35;6.25;;;;;;;25.37;43.04;94921.63;5024788;28;20224;-67
2022/07/30 06:27:33;;;;;;;9.57;6.28;;;;;;;25.52;43.05;94910.25;5023852;28;20226;-68
2022/07/30 06:30:05;;;;;;;6.13;5.53;;;;;;;25.60;42.51;94915.22;5026836;28;20254;-67
2022/07/30 06:32:30;;;;;;;6.65;4.95;;;;;;;25.52;42.04;94910.25;5027079;28;20226;-68
2022/07/30 06:34:56;;;;;;;8.85;6.10;;;;;;;25.60;41.82;94907.13;5026119;28;20737;-68
2022/07/30 06:37:21;;;;;;;6.63;5.90;;;;;;;25.53;42.13;94901.94;5024308;28;20225;-68
2022/07/30 06:39:47;;;;;;;8.27;6.18;;;;;;;25.66;41.34;94908.84;5020964;28;20234;-67
2022/07/30 06:42:13;;;;;;;9.57;6.80;;;;;;;25.68;41.43;94906.69;5055170;28;20253;-68
2022/07/30 06:44:38;;;;;;;6.90;6.03;;;;;;;25.78;41.24;94900.66;5055557;28;20214;-66
2022/07/30 06:47:04;;;;;;;6.75;5.90;;;;;;;25.80;41.27;94898.53;5044318;28;20212;-67
2022/07/30 06:49:34;;;;;;;8.80;6.32;;;;;;;25.84;40.72;94901.56;5043174;28;20296;-67
2022/07/30 06:52:00;;;;;;;9.88;6.35;;;;;;;25.85;41.09;94895.94;5044412;28;20226;-67
2022/07/30 06:54:25;;;;;;;8.23;6.07;;;;;;;25.99;41.38;94895.56;5041485;28;20236;-67
2022/07/30 06:56:51;;;;;;;6.82;6.13;;;;;;;26.01;40.95;94901.47;5057778;28;20228;-67
2022/07/30 06:59:16;;;;;;;8.30;5.68;;;;;;;26.03;40.50;94894.78;5040705;28;20197;-66
2022/07/30 07:01:42;;;;;;;7.90;5.25;;;;;;;26.03;41.05;94891.28;5044666;28;20208;-68
2022/07/30 07:04:08;;;;;;;7.28;5.80;;;;;;;26.09;40.38;94891.09;5047168;28;20228;-66
2022/07/30 07:06:33;;;;;;;6.05;5.55;;;;;;;26.03;40.61;94875.09;5043568;28;20221;-67
2022/07/30 07:08:59;;;;;;;7.53;5.15;;;;;;;26.14;40.83;94882.22;5041216;28;20395;-66
2022/07/30 07:11:24;;;;;;;6.28;5.72;;;;;;;26.15;40.48;94879.31;5043840;28;20221;-66
2022/07/30 07:13:50;;;;;;;9.05;5.75;;;;;;;26.27;40.05;94887.22;5043606;28;20220;-66
2022/07/30 07:16:20;;;;;;;5.95;5.38;;;;;;;26.26;40.25;94879.41;5044740;28;20685;-67
2022/07/30 07:18:46;;;;;;;9.30;5.97;;;;;;;26.37;40.13;94871.16;5046762;28;20225;-67
2022/07/30 07:21:12;;;;;;;6.10;5.55;;;;;;;26.33;40.16;94869.22;5065970;28;20225;-67
2022/07/30 07:23:37;;;;;;;5.78;4.95;;;;;;;26.42;39.97;94875.00;5067558;28;20218;-66
2022/07/30 07:26:03;;;;;;;5.03;4.53;;;;;;;26.46;39.50;94868.00;5047399;28;20273;-67
2022/07/30 07:28:28;;;;;;;5.47;4.57;;;;;;;26.54;39.72;94871.13;5061056;28;20276;-67
2022/07/30 07:30:54;;;;;;;6.32;4.60;;;;;;;26.58;39.06;94874.09;5045748;28;20273;-68
2022/07/30 07:33:19;;;;;;;5.25;4.68;;;;;;;26.66;38.56;94870.94;5042323;28;20229;-67
2022/07/30 07:35:45;;;;;;;5.45;4.57;;;;;;;26.65;38.55;94863.09;5028064;28;20279;-67
2022/07/30 07:38:10;;;;;;;4.72;4.32;;;;;;;26.75;38.25;94865.88;5062998;28;20262;-69
2022/07/30 07:40:35;;;;;;;4.90;4.50;;;;;;;26.71;38.94;94862.91;5063006;28;20205;-69
2022/07/30 07:43:01;;;;;;;5.18;4.60;;;;;;;26.65;39.00;94863.94;5043425;28;21129;-67
2022/07/30 07:45:26;;;;;;;5.18;4.75;;;;;;;26.79;39.01;94858.94;5045479;28;20221;-68
2022/07/30 07:47:52;;;;;;;6.38;4.63;;;;;;;26.89;38.92;94872.50;5039696;28;20222;-68
2022/07/30 07:50:18;;;;;;;5.25;4.75;;;;;;;27.00;38.79;94857.22;5047085;28;20202;-68
2022/07/30 07:52:44;;;;;;;6.57;4.65;;;;;;;27.03;38.25;94862.88;5046491;28;20282;-68
2022/07/30 07:55:10;;;;;;;5.13;4.57;;;;;;;27.18;37.25;94862.19;5047912;28;20548;-69
2022/07/30 07:57:40;;;;;;;4.88;4.47;;;;;;;27.23;37.37;94862.25;5047405;28;20244;-67
2022/07/30 08:00:08;;;;;;;4.63;4.15;;;;;;;27.39;37.46;94856.94;5047471;28;20225;-68
2022/07/30 08:02:34;;;;;;;4.53;4.18;;;;;;;27.49;37.11;94848.91;5042523;28;20214;-68
2022/07/30 08:04:59;;;;;;;5.07;4.25;;;;;;;27.47;37.17;94854.56;5040260;28;20198;-67
2022/07/30 08:07:25;;;;;;;5.75;4.18;;;;;;;27.43;36.75;94855.38;5060821;28;20530;-68
2022/07/30 08:09:50;;;;;;;4.22;3.92;;;;;;;27.56;36.29;94860.28;5042451;28;20218;-68
2022/07/30 08:12:16;;;;;;;5.07;4.63;;;;;;;27.55;36.33;94853.25;5059028;28;20217;-67
2022/07/30 08:14:42;;;;;;;5.07;4.68;;;;;;;27.63;35.85;94850.06;5048323;28;20217;-66
2022/07/30 08:17:08;;;;;;;5.45;4.50;;;;;;;27.69;35.66;94857.13;5046434;28;20695;-67
2022/07/30 08:19:33;;;;;;;5.15;4.75;;;;;;;27.81;35.11;94850.72;5042695;28;20212;-68
2022/07/30 08:21:59;;;;;;;4.90;4.55;;;;;;;27.88;34.77;94856.66;5044907;28;20685;-67
2022/07/30 08:24:24;;;;;;;5.43;4.20;;;;;;;27.89;35.03;94852.91;5046490;28;20222;-67
2022/07/30 08:26:50;;;;;;;5.65;4.82;;;;;;;27.94;34.84;94855.63;5042994;28;20642;-68
2022/07/30 08:29:16;;;;;;;5.20;4.70;;;;;;;28.06;35.20;94847.28;5042672;28;20233;-67
2022/07/30 08:31:41;;;;;;;7.00;5.32;;;;;;;28.04;35.33;94847.56;5046249;28;20209;-67
2022/07/30 08:34:07;;;;;;;5.47;4.95;;;;;;;28.01;35.65;94845.38;5045746;28;20217;-68
2022/07/30 08:36:33;;;;;;;5.80;4.80;;;;;;;28.08;35.23;94840.53;5041660;28;20651;-68
2022/07/30 08:38:58;;;;;;;6.18;4.78;;;;;;;28.22;35.39;94848.94;5044707;28;20214;-68
2022/07/30 08:41:24;;;;;;;5.47;4.60;;;;;;;28.35;34.90;94844.94;5060978;28;20241;-68
2022/07/30 08:43:50;;;;;;;7.03;4.97;;;;;;;28.21;34.96;94844.63;5045235;28;20201;-68
2022/07/30 08:46:17;;;;;;;5.00;4.60;;;;;;;28.21;34.81;94846.53;5043207;28;20545;-68
2022/07/30 08:48:44;;;;;;;7.28;4.85;;;;;;;28.33;34.37;94838.97;5038287;28;20759;-67
2022/07/30 08:51:10;;;;;;;4.45;4.05;;;;;;;28.39;34.86;94832.50;5043862;28;20234;-67
2022/07/30 08:53:35;;;;;;;5.47;4.97;;;;;;;28.47;34.38;94834.72;5042977;28;20272;-68
2022/07/30 08:56:03;;;;;;;5.75;4.78;;;;;;;28.57;34.29;94836.59;5040570;28;20217;-67
2022/07/30 08:58:32;;;;;;;5.57;4.75;;;;;;;28.63;34.27;94834.72;5038712;28;20299;-69
2022/07/30 09:00:58;;;;;;;5.22;4.82;;;;;;;28.62;33.83;94828.50;5051659;28;20217;-66
2022/07/30 09:03:23;;;;;;;5.13;4.63;;;;;;;28.54;33.52;94821.72;5060108;28;20217;-67
2022/07/30 09:05:49;;;;;;;5.60;4.93;;;;;;;28.50;33.66;94814.44;5044752;28;20247;-67
2022/07/30 09:08:14;;;;;;;5.20;4.70;;;;;;;28.56;33.36;94816.06;5043969;28;20286;-67
2022/07/30 09:10:41;;;;;;;4.40;4.00;;;;;;;28.67;33.48;94814.97;5060906;28;20205;-67
2022/07/30 09:13:26;;;;;;;6.15;5.10;;;;;;;28.78;33.14;94816.59;5058755;28;20224;-67
2022/07/30 09:15:52;;;;;;;5.95;4.53;;;;;;;28.75;33.21;94814.44;5037903;28;20218;-67
2022/07/30 09:18:43;;;;;;;5.25;4.82;;;;;;;28.73;33.88;94799.53;5036319;28;20432;-68
2022/07/30 09:21:25;;;;;;;4.97;4.57;;;;;;;28.95;33.13;94807.38;5043960;28;20225;-69
2022/07/30 09:23:58;;;;;;;5.63;4.47;;;;;;;28.95;33.18;94800.09;5042904;28;20260;-68
2022/07/30 09:26:24;;;;;;;7.60;4.72;;;;;;;29.09;32.86;94788.72;5044107;28;20231;-68
2022/07/30 09:28:49;;;;;;;5.15;4.70;;;;;;;29.20;32.66;94787.63;5042613;28;20209;-67
2022/07/30 09:31:16;;;;;;;6.88;4.93;;;;;;;29.15;32.65;94790.34;5061067;28;20222;-67
2022/07/30 09:33:44;;;;;;;5.15;4.75;;;;;;;29.13;32.93;94781.66;5034911;28;20698;-67
2022/07/30 09:36:12;;;;;;;5.55;4.20;;;;;;;29.33;32.45;94783.53;5042167;28;20229;-67
2022/07/30 09:38:52;;;;;;;7.38;4.70;;;;;;;29.44;32.40;94780.50;5038641;28;20253;-67
2022/07/30 09:41:34;;;;;;;4.95;4.55;;;;;;;29.73;31.91;94776.38;5034264;28;20370;-67
2022/07/30 09:44:03;;;;;;;5.93;4.38;;;;;;;29.95;31.42;94781.41;5036265;28;20207;-67
2022/07/30 09:46:55;;;;;;;5.15;4.68;;;;;;;30.12;30.95;94781.84;5057784;28;20340;-67
2022/07/30 09:49:23;;;;;;;5.88;4.93;;;;;;;30.32;31.21;94783.66;5040223;28;20232;-67
2022/07/30 09:51:50;;;;;;;5.35;4.57;;;;;;;30.40;30.56;94779.53;5058162;28;20257;-68
2022/07/30 09:54:16;;;;;;;5.22;4.30;;;;;;;30.45;29.96;94776.78;5042830;28;20221;-67
2022/07/30 09:56:47;;;;;;;4.70;4.30;;;;;;;30.47;30.19;94769.16;5058003;28;20245;-67
2022/07/30 09:59:31;;;;;;;5.28;4.78;;;;;;;30.61;29.91;94770.16;5045249;28;20235;-67
2022/07/30 10:01:57;;;;;;;4.93;4.43;;;;;;;30.68;29.28;94767.09;5040909;28;20214;-67
2022/07/30 10:04:32;;;;;;;4.57;4.18;;;;;;;30.81;28.96;94762.94;5043545;28;20441;-68
2022/07/30 10:06:59;;;;;;;5.57;4.72;;;;;;;30.82;29.39;94759.13;5056586;28;20280;-67
2022/07/30 10:09:29;;;;;;;4.68;4.38;;;;;;;31.08;28.75;94755.06;5041845;28;20299;-67
2022/07/30 10:11:57;;;;;;;5.07;4.63;;;;;;;31.17;29.09;94750.66;5040788;28;20234;-68
2022/07/30 10:14:27;;;;;;;4.45;4.15;;;;;;;31.18;28.33;94751.44;5043291;28;20229;-67
2022/07/30 10:16:53;;;;;;;5.85;4.60;;;;;;;31.42;28.66;94746.06;5044848;28;20206;-68
2022/07/30 10:19:19;;;;;;;6.53;4.65;;;;;;;31.60;28.52;94745.28;5061969;28;20304;-67
2022/07/30 10:21:45;;;;;;;5.15;4.75;;;;;;;31.73;28.02;94742.94;5034882;28;20233;-68
2022/07/30 10:24:11;;;;;;;5.95;4.95;;;;;;;31.80;28.29;94738.78;5044625;28;20295;-68
2022/07/30 10:26:37;;;;;;;5.30;4.75;;;;;;;31.91;28.00;94742.16;5041409;28;20229;-67
2022/07/30 10:29:03;;;;;;;5.55;5.00;;;;;;;31.85;27.33;94733.25;5042366;28;20240;-68
2022/07/30 10:31:29;;;;;;;5.60;4.85;;;;;;;31.96;27.75;94731.25;5042100;28;20216;-68
2022/07/30 10:33:56;;;;;;;5.93;5.53;;;;;;;32.02;27.35;94724.66;5041446;28;20229;-68
2022/07/30 10:36:24;;;;;;;6.22;5.63;;;;;;;32.24;26.76;94728.69;5051453;28;20681;-67
2022/07/30 10:38:50;;;;;;;6.00;5.60;;;;;;;32.44;26.98;94722.91;5036644;28;20217;-66
2022/07/30 10:41:37;;;;;;;4.95;4.55;;;;;;;32.61;26.25;94718.84;5049433;28;20213;-66
2022/07/30 10:44:08;;;;;;;9.00;5.82;;;;;;;32.41;25.95;94720.78;5048622;28;20266;-67
2022/07/30 10:46:58;;;;;;;6.07;5.47;;;;;;;32.32;26.30;94708.97;5037540;28;20209;-66
2022/07/30 10:49:24;;;;;;;6.30;5.75;;;;;;;32.73;26.48;94709.13;5036930;28;20296;-67
2022/07/30 10:51:53;;;;;;;6.32;5.82;;;;;;;33.00;25.84;94698.56;5037746;28;20227;-68
2022/07/30 10:54:43;;;;;;;5.22;4.82;;;;;;;33.16;25.67;94708.09;5040296;28;20221;-68
2022/07/30 10:57:16;;;;;;;6.70;5.78;;;;;;;33.13;25.06;94712.22;5055873;28;20236;-67
2022/07/30 10:59:51;;;;;;;5.97;5.47;;;;;;;33.24;25.42;94707.38;5040147;28;20655;-67
2022/07/30 11:02:18;;;;;;;6.72;6.22;;;;;;;33.36;24.97;94701.41;5040201;28;20201;-68
2022/07/30 11:04:43;;;;;;;7.35;5.40;;;;;;;33.67;24.72;94693.47;5039711;28;20196;-68
2022/07/30 11:07:28;;;;;;;5.85;5.32;;;;;;;33.92;24.02;94691.28;5039452;28;20221;-68
2022/07/30 11:09:56;;;;;;;6.35;5.78;;;;;;;34.04;24.02;94692.34;5057000;28;20217;-67
2022/07/30 11:12:40;;;;;;;6.07;5.43;;;;;;;34.11;23.67;94688.41;5037624;28;20217;-67
2022/07/30 11:15:09;;;;;;;5.78;5.28;;;;;;;34.19;23.59;94677.59;5033622;28;20282;-67
2022/07/30 11:17:57;;;;;;;5.50;5.00;;;;;;;34.46;23.78;94673.94;5038303;28;20224;-67
2022/07/30 11:20:22;;;;;;;5.95;5.35;;;;;;;34.74;23.94;94681.19;5037193;28;20768;-66
2022/07/30 11:22:48;;;;;;;5.72;5.20;;;;;;;34.97;23.41;94680.03;5039812;28;20198;-66
2022/07/30 11:25:28;;;;;;;5.30;4.95;;;;;;;34.91;23.08;94684.81;5041116;28;20221;-66
2022/07/30 11:27:54;;;;;;;5.43;4.97;;;;;;;34.36;23.63;94676.09;5039656;28;20359;-66
2022/07/30 11:30:19;;;;;;;6.22;5.60;;;;;;;33.96;23.86;94668.53;5055131;28;20279;-67
2022/07/30 11:32:52;;;;;;;6.10;5.60;;;;;;;33.71;24.26;94658.19;5039474;28;20283;-66
2022/07/30 11:35:28;;;;;;;6.43;5.90;;;;;;;33.50;24.76;94658.63;5045598;28;20220;-69
2022/07/30 11:37:58;;;;;;;5.95;5.32;;;;;;;33.56;25.29;94659.34;5045149;28;20706;-66